sensor_id;sensor_type;location;lat;lon;timestamp;pressure;altitude;pressure_sealevel;temperature;humidity
77227;BME280;66234;47.642;19.144;2023-03-23T00:00:22;100209.25;;;5.83;77.29
77227;BME280;66234;47.642;19.144;2023-03-23T00:03:24;100203.78;;;5.76;77.51
77227;BME280;66234;47.642;19.144;2023-03-23T00:06:27;100203.84;;;5.68;77.83
77227;BME280;66234;47.642;19.144;2023-03-23T00:09:34;100200.88;;;5.63;78.14
77227;BME280;66234;47.642;19.144;2023-03-23T00:12:36;100204.38;;;5.64;78.00
77227;BME280;66234;47.642;19.144;2023-03-23T00:15:37;100203.66;;;5.70;77.52
77227;BME280;66234;47.642;19.144;2023-03-23T00:18:51;100197.59;;;5.61;78.11
77227;BME280;66234;47.642;19.144;2023-03-23T00:21:53;100203.13;;;5.52;78.16
77227;BME280;66234;47.642;19.144;2023-03-23T00:24:55;100206.31;;;5.47;78.30
77227;BME280;66234;47.642;19.144;2023-03-23T00:27:56;100191.03;;;5.49;78.41
77227;BME280;66234;47.642;19.144;2023-03-23T00:31:00;100191.50;;;5.53;78.08
77227;BME280;66234;47.642;19.144;2023-03-23T00:34:04;100196.69;;;5.46;78.33
77227;BME280;66234;47.642;19.144;2023-03-23T00:37:07;100195.88;;;5.46;78.04
77227;BME280;66234;47.642;19.144;2023-03-23T00:40:10;100199.88;;;5.42;78.24
77227;BME280;66234;47.642;19.144;2023-03-23T00:43:14;100197.75;;;5.37;78.51
77227;BME280;66234;47.642;19.144;2023-03-23T00:46:16;100192.31;;;5.31;78.35
77227;BME280;66234;47.642;19.144;2023-03-23T00:49:20;100194.16;;;5.30;78.58
77227;BME280;66234;47.642;19.144;2023-03-23T00:52:26;100190.50;;;5.31;78.32
77227;BME280;66234;47.642;19.144;2023-03-23T00:55:27;100186.56;;;5.27;78.44
77227;BME280;66234;47.642;19.144;2023-03-23T00:58:29;100182.88;;;5.28;78.19
77227;BME280;66234;47.642;19.144;2023-03-23T01:01:31;100182.41;;;5.25;78.22
77227;BME280;66234;47.642;19.144;2023-03-23T01:04:32;100175.69;;;5.14;78.55
77227;BME280;66234;47.642;19.144;2023-03-23T01:07:40;100169.72;;;5.12;78.65
77227;BME280;66234;47.642;19.144;2023-03-23T01:10:43;100176.38;;;5.08;78.90
77227;BME280;66234;47.642;19.144;2023-03-23T01:13:46;100170.59;;;5.04;78.89
77227;BME280;66234;47.642;19.144;2023-03-23T01:16:47;100175.44;;;5.01;78.62
77227;BME280;66234;47.642;19.144;2023-03-23T01:19:49;100176.28;;;4.93;78.93
77227;BME280;66234;47.642;19.144;2023-03-23T01:22:50;100170.97;;;4.93;79.21
77227;BME280;66234;47.642;19.144;2023-03-23T01:25:51;100171.66;;;4.87;79.49
77227;BME280;66234;47.642;19.144;2023-03-23T01:28:55;100165.84;;;4.92;79.31
77227;BME280;66234;47.642;19.144;2023-03-23T01:31:57;100167.16;;;4.96;78.95
77227;BME280;66234;47.642;19.144;2023-03-23T01:34:59;100164.69;;;4.94;78.82
77227;BME280;66234;47.642;19.144;2023-03-23T01:38:01;100163.38;;;4.90;78.83
77227;BME280;66234;47.642;19.144;2023-03-23T01:41:03;100159.78;;;4.83;79.46
77227;BME280;66234;47.642;19.144;2023-03-23T01:44:08;100172.53;;;4.80;79.57
77227;BME280;66234;47.642;19.144;2023-03-23T01:47:40;100163.13;;;4.77;79.39
77227;BME280;66234;47.642;19.144;2023-03-23T01:54:07;100170.56;;;4.74;79.45
77227;BME280;66234;47.642;19.144;2023-03-23T01:57:13;100156.66;;;4.72;79.56
77227;BME280;66234;47.642;19.144;2023-03-23T02:00:16;100159.50;;;4.70;79.59
77227;BME280;66234;47.642;19.144;2023-03-23T02:03:28;100155.69;;;4.73;79.22
77227;BME280;66234;47.642;19.144;2023-03-23T02:06:30;100156.38;;;4.67;79.23
77227;BME280;66234;47.642;19.144;2023-03-23T02:09:45;100155.38;;;4.68;79.46
77227;BME280;66234;47.642;19.144;2023-03-23T02:12:46;100156.38;;;4.67;79.32
77227;BME280;66234;47.642;19.144;2023-03-23T02:22:27;100168.81;;;4.58;79.78
77227;BME280;66234;47.642;19.144;2023-03-23T02:25:49;100167.16;;;4.57;79.58
77227;BME280;66234;47.642;19.144;2023-03-23T02:32:43;100170.66;;;4.50;79.64
77227;BME280;66234;47.642;19.144;2023-03-23T02:36:04;100170.84;;;4.48;79.61
77227;BME280;66234;47.642;19.144;2023-03-23T02:39:34;100169.03;;;4.41;79.89
77227;BME280;66234;47.642;19.144;2023-03-23T02:42:41;100174.34;;;4.41;79.66
77227;BME280;66234;47.642;19.144;2023-03-23T02:45:45;100187.25;;;4.36;79.86
77227;BME280;66234;47.642;19.144;2023-03-23T02:48:48;100185.13;;;4.31;79.98
77227;BME280;66234;47.642;19.144;2023-03-23T02:51:53;100185.63;;;4.27;80.41
77227;BME280;66234;47.642;19.144;2023-03-23T02:54:56;100178.16;;;4.30;79.98
77227;BME280;66234;47.642;19.144;2023-03-23T02:58:01;100179.50;;;4.26;80.31
77227;BME280;66234;47.642;19.144;2023-03-23T03:01:45;100178.00;;;4.24;80.15
77227;BME280;66234;47.642;19.144;2023-03-23T03:04:40;100177.69;;;4.27;80.47
77227;BME280;66234;47.642;19.144;2023-03-23T03:07:47;100181.13;;;4.19;80.32
77227;BME280;66234;47.642;19.144;2023-03-23T03:11:03;100180.16;;;4.20;80.28
77227;BME280;66234;47.642;19.144;2023-03-23T03:14:10;100180.00;;;4.22;80.42
77227;BME280;66234;47.642;19.144;2023-03-23T03:20:25;100175.38;;;4.08;80.92
77227;BME280;66234;47.642;19.144;2023-03-23T03:23:28;100185.28;;;4.06;81.13
77227;BME280;66234;47.642;19.144;2023-03-23T03:26:33;100174.53;;;4.07;80.76
77227;BME280;66234;47.642;19.144;2023-03-23T03:30:01;100185.13;;;4.07;80.49
77227;BME280;66234;47.642;19.144;2023-03-23T03:33:05;100189.44;;;4.08;80.32
77227;BME280;66234;47.642;19.144;2023-03-23T03:36:07;100193.91;;;4.00;80.80
77227;BME280;66234;47.642;19.144;2023-03-23T03:39:15;100188.44;;;3.93;81.13
77227;BME280;66234;47.642;19.144;2023-03-23T03:42:18;100194.75;;;3.92;81.16
77227;BME280;66234;47.642;19.144;2023-03-23T03:45:20;100190.78;;;3.88;81.14
77227;BME280;66234;47.642;19.144;2023-03-23T03:48:21;100191.25;;;3.92;80.95
77227;BME280;66234;47.642;19.144;2023-03-23T03:51:24;100190.63;;;3.90;81.18
77227;BME280;66234;47.642;19.144;2023-03-23T03:54:27;100190.78;;;3.88;80.92
77227;BME280;66234;47.642;19.144;2023-03-23T03:57:28;100193.91;;;3.84;81.12
77227;BME280;66234;47.642;19.144;2023-03-23T04:00:33;100199.19;;;3.84;80.94
77227;BME280;66234;47.642;19.144;2023-03-23T04:03:35;100200.53;;;3.88;80.89
77227;BME280;66234;47.642;19.144;2023-03-23T04:06:44;100208.97;;;3.83;80.71
77227;BME280;66234;47.642;19.144;2023-03-23T04:09:46;100202.31;;;3.79;80.86
77227;BME280;66234;47.642;19.144;2023-03-23T04:12:51;100202.31;;;3.79;81.18
77227;BME280;66234;47.642;19.144;2023-03-23T04:16:15;100205.81;;;3.80;80.89
77227;BME280;66234;47.642;19.144;2023-03-23T04:19:19;100209.13;;;3.74;80.88
77227;BME280;66234;47.642;19.144;2023-03-23T04:22:21;100209.63;;;3.77;80.76
77227;BME280;66234;47.642;19.144;2023-03-23T04:25:34;100210.59;;;3.76;80.81
77227;BME280;66234;47.642;19.144;2023-03-23T04:28:39;100205.78;;;3.72;80.70
77227;BME280;66234;47.642;19.144;2023-03-23T04:32:06;100204.00;;;3.72;80.87
77227;BME280;66234;47.642;19.144;2023-03-23T04:35:13;100216.72;;;3.77;80.43
77227;BME280;66234;47.642;19.144;2023-03-23T04:38:24;100213.09;;;3.70;80.86
77227;BME280;66234;47.642;19.144;2023-03-23T04:41:32;100209.94;;;3.74;80.63
77227;BME280;66234;47.642;19.144;2023-03-23T04:44:47;100204.31;;;3.69;80.76
77227;BME280;66234;47.642;19.144;2023-03-23T04:48:15;100208.25;;;3.65;81.03
77227;BME280;66234;47.642;19.144;2023-03-23T04:51:29;100211.75;;;3.66;81.09
77227;BME280;66234;47.642;19.144;2023-03-23T04:54:37;100214.91;;;3.69;80.83
77227;BME280;66234;47.642;19.144;2023-03-23T04:57:39;100202.50;;;3.70;81.45
77227;BME280;66234;47.642;19.144;2023-03-23T05:01:01;100205.13;;;3.78;81.66
77227;BME280;66234;47.642;19.144;2023-03-23T05:04:04;100211.78;;;3.82;81.54
77227;BME280;66234;47.642;19.144;2023-03-23T05:07:07;100212.41;;;3.84;81.24
77227;BME280;66234;47.642;19.144;2023-03-23T05:10:15;100215.41;;;3.89;80.95
77227;BME280;66234;47.642;19.144;2023-03-23T05:13:18;100216.72;;;4.01;80.59
77227;BME280;66234;47.642;19.144;2023-03-23T05:16:23;100210.75;;;4.15;80.09
77227;BME280;66234;47.642;19.144;2023-03-23T05:19:24;100210.06;;;4.21;79.82
77227;BME280;66234;47.642;19.144;2023-03-23T05:22:28;100207.75;;;4.26;79.84
77227;BME280;66234;47.642;19.144;2023-03-23T05:25:36;100211.91;;;4.28;80.09
77227;BME280;66234;47.642;19.144;2023-03-23T05:28:47;100218.34;;;4.34;80.00
77227;BME280;66234;47.642;19.144;2023-03-23T05:31:54;100213.72;;;4.44;79.86
77227;BME280;66234;47.642;19.144;2023-03-23T05:34:59;100208.19;;;4.53;79.79
77227;BME280;66234;47.642;19.144;2023-03-23T05:38:01;100208.50;;;4.66;79.60
77227;BME280;66234;47.642;19.144;2023-03-23T05:41:04;100205.16;;;4.80;79.19
77227;BME280;66234;47.642;19.144;2023-03-23T05:44:12;100204.78;;;4.91;79.02
77227;BME280;66234;47.642;19.144;2023-03-23T05:47:22;100203.91;;;4.99;78.82
77227;BME280;66234;47.642;19.144;2023-03-23T05:50:30;100203.00;;;5.15;79.03
77227;BME280;66234;47.642;19.144;2023-03-23T05:53:33;100206.41;;;5.31;78.78
77227;BME280;66234;47.642;19.144;2023-03-23T05:56:35;100208.78;;;5.49;78.84
77227;BME280;66234;47.642;19.144;2023-03-23T05:59:53;100209.78;;;5.70;78.61
77227;BME280;66234;47.642;19.144;2023-03-23T06:02:58;100212.09;;;5.96;78.00
77227;BME280;66234;47.642;19.144;2023-03-23T06:06:13;100211.31;;;6.10;76.95
77227;BME280;66234;47.642;19.144;2023-03-23T06:09:24;100217.03;;;6.21;77.12
77227;BME280;66234;47.642;19.144;2023-03-23T06:12:44;100213.31;;;6.30;76.83
77227;BME280;66234;47.642;19.144;2023-03-23T06:16:01;100220.19;;;6.39;76.55
77227;BME280;66234;47.642;19.144;2023-03-23T06:19:20;100218.09;;;6.49;75.98
77227;BME280;66234;47.642;19.144;2023-03-23T06:22:44;100216.81;;;6.60;75.89
77227;BME280;66234;47.642;19.144;2023-03-23T06:25:58;100215.16;;;6.73;75.07
77227;BME280;66234;47.642;19.144;2023-03-23T06:29:01;100208.38;;;6.86;74.81
77227;BME280;66234;47.642;19.144;2023-03-23T06:32:06;100212.31;;;7.04;74.33
77227;BME280;66234;47.642;19.144;2023-03-23T06:35:10;100208.63;;;7.20;73.90
77227;BME280;66234;47.642;19.144;2023-03-23T06:38:32;100213.09;;;7.34;73.65
77227;BME280;66234;47.642;19.144;2023-03-23T06:41:34;100216.78;;;7.54;73.07
77227;BME280;66234;47.642;19.144;2023-03-23T06:44:36;100219.59;;;7.67;72.41
77227;BME280;66234;47.642;19.144;2023-03-23T06:47:38;100214.47;;;7.86;71.95
77227;BME280;66234;47.642;19.144;2023-03-23T06:50:45;100221.56;;;8.00;71.79
77227;BME280;66234;47.642;19.144;2023-03-23T06:53:49;100214.94;;;8.17;70.79
77227;BME280;66234;47.642;19.144;2023-03-23T06:56:51;100215.72;;;8.32;70.58
77227;BME280;66234;47.642;19.144;2023-03-23T06:59:53;100215.16;;;8.71;67.96
77227;BME280;66234;47.642;19.144;2023-03-23T07:02:57;100222.34;;;9.11;65.63
77227;BME280;66234;47.642;19.144;2023-03-23T07:05:59;100219.22;;;9.48;63.69
77227;BME280;66234;47.642;19.144;2023-03-23T07:09:05;100215.59;;;9.75;63.61
77227;BME280;66234;47.642;19.144;2023-03-23T07:12:08;100220.75;;;9.96;62.79
77227;BME280;66234;47.642;19.144;2023-03-23T07:15:16;100225.13;;;10.17;61.95
77227;BME280;66234;47.642;19.144;2023-03-23T07:18:22;100222.47;;;10.37;61.70
77227;BME280;66234;47.642;19.144;2023-03-23T07:21:24;100221.84;;;10.48;61.23
77227;BME280;66234;47.642;19.144;2023-03-23T07:24:26;100226.34;;;10.60;61.16
77227;BME280;66234;47.642;19.144;2023-03-23T07:27:50;100229.84;;;10.67;60.94
77227;BME280;66234;47.642;19.144;2023-03-23T07:30:52;100239.50;;;10.75;60.65
77227;BME280;66234;47.642;19.144;2023-03-23T07:33:55;100239.88;;;10.78;60.56
77227;BME280;66234;47.642;19.144;2023-03-23T07:37:04;100240.28;;;10.95;61.12
77227;BME280;66234;47.642;19.144;2023-03-23T07:40:10;100242.50;;;11.11;59.86
77227;BME280;66234;47.642;19.144;2023-03-23T07:43:22;100245.13;;;11.24;60.14
77227;BME280;66234;47.642;19.144;2023-03-23T07:46:43;100250.03;;;11.40;59.07
77227;BME280;66234;47.642;19.144;2023-03-23T07:49:48;100244.59;;;11.53;58.11
77227;BME280;66234;47.642;19.144;2023-03-23T07:52:58;100250.09;;;11.71;57.59
77227;BME280;66234;47.642;19.144;2023-03-23T07:56:02;100247.75;;;11.88;56.09
77227;BME280;66234;47.642;19.144;2023-03-23T07:59:43;100241.22;;;12.08;56.14
77227;BME280;66234;47.642;19.144;2023-03-23T08:02:46;100242.19;;;12.20;55.60
77227;BME280;66234;47.642;19.144;2023-03-23T08:06:14;100237.75;;;12.32;54.99
77227;BME280;66234;47.642;19.144;2023-03-23T08:09:26;100246.09;;;12.42;54.58
77227;BME280;66234;47.642;19.144;2023-03-23T08:12:55;100239.31;;;12.64;53.77
77227;BME280;66234;47.642;19.144;2023-03-23T08:16:03;100241.00;;;12.83;53.16
77227;BME280;66234;47.642;19.144;2023-03-23T08:19:23;100246.19;;;13.03;52.92
77227;BME280;66234;47.642;19.144;2023-03-23T08:22:41;100248.06;;;13.20;52.96
77227;BME280;66234;47.642;19.144;2023-03-23T08:26:06;100248.03;;;13.39;51.22
77227;BME280;66234;47.642;19.144;2023-03-23T08:29:21;100238.94;;;13.58;50.59
77227;BME280;66234;47.642;19.144;2023-03-23T08:32:40;100243.94;;;13.84;48.82
77227;BME280;66234;47.642;19.144;2023-03-23T08:36:04;100241.19;;;14.02;48.78
77227;BME280;66234;47.642;19.144;2023-03-23T08:39:22;100246.66;;;14.25;47.64
77227;BME280;66234;47.642;19.144;2023-03-23T08:42:43;100239.69;;;14.35;47.04
77227;BME280;66234;47.642;19.144;2023-03-23T08:46:08;100240.03;;;14.50;45.94
77227;BME280;66234;47.642;19.144;2023-03-23T08:49:34;100242.88;;;14.78;46.15
77227;BME280;66234;47.642;19.144;2023-03-23T08:53:10;100241.34;;;14.94;45.27
77227;BME280;66234;47.642;19.144;2023-03-23T08:56:38;100243.75;;;15.19;44.47
77227;BME280;66234;47.642;19.144;2023-03-23T08:59:57;100245.00;;;15.51;46.41
77227;BME280;66234;47.642;19.144;2023-03-23T09:03:20;100234.34;;;15.44;43.18
77227;BME280;66234;47.642;19.144;2023-03-23T09:06:35;100236.06;;;15.90;43.34
77227;BME280;66234;47.642;19.144;2023-03-23T09:09:38;100231.78;;;16.05;43.28
77227;BME280;66234;47.642;19.144;2023-03-23T09:12:44;100224.34;;;15.84;42.22
77227;BME280;66234;47.642;19.144;2023-03-23T09:15:48;100230.75;;;15.95;42.21
77227;BME280;66234;47.642;19.144;2023-03-23T09:18:49;100235.19;;;16.01;42.05
77227;BME280;66234;47.642;19.144;2023-03-23T09:21:52;100226.13;;;16.07;41.02
77227;BME280;66234;47.642;19.144;2023-03-23T09:24:54;100214.28;;;16.24;42.18
77227;BME280;66234;47.642;19.144;2023-03-23T09:27:57;100215.41;;;16.57;40.92
77227;BME280;66234;47.642;19.144;2023-03-23T09:31:00;100216.03;;;16.64;39.96
77227;BME280;66234;47.642;19.144;2023-03-23T09:34:01;100220.63;;;17.01;39.60
77227;BME280;66234;47.642;19.144;2023-03-23T09:37:05;100224.63;;;17.15;39.20
77227;BME280;66234;47.642;19.144;2023-03-23T09:40:14;100220.84;;;17.38;39.38
77227;BME280;66234;47.642;19.144;2023-03-23T09:43:40;100221.28;;;17.51;38.74
77227;BME280;66234;47.642;19.144;2023-03-23T09:46:55;100216.88;;;17.67;38.32
77227;BME280;66234;47.642;19.144;2023-03-23T09:53:26;100214.59;;;18.07;37.96
77227;BME280;66234;47.642;19.144;2023-03-23T09:56:31;100202.34;;;17.99;36.85
77227;BME280;66234;47.642;19.144;2023-03-23T09:59:58;100201.31;;;18.05;37.38
77227;BME280;66234;47.642;19.144;2023-03-23T10:03:14;100189.88;;;18.30;37.34
77227;BME280;66234;47.642;19.144;2023-03-23T10:06:17;100192.84;;;18.60;36.84
77227;BME280;66234;47.642;19.144;2023-03-23T10:09:19;100187.09;;;18.52;36.85
77227;BME280;66234;47.642;19.144;2023-03-23T10:12:39;100190.13;;;18.24;37.16
77227;BME280;66234;47.642;19.144;2023-03-23T10:15:45;100180.28;;;18.44;37.10
77227;BME280;66234;47.642;19.144;2023-03-23T10:22:29;100176.16;;;18.73;36.50
77227;BME280;66234;47.642;19.144;2023-03-23T10:25:42;100167.84;;;18.90;36.50
77227;BME280;66234;47.642;19.144;2023-03-23T10:28:50;100170.59;;;19.00;36.75
77227;BME280;66234;47.642;19.144;2023-03-23T10:32:00;100165.47;;;19.03;36.33
77227;BME280;66234;47.642;19.144;2023-03-23T10:35:07;100172.50;;;19.04;36.35
77227;BME280;66234;47.642;19.144;2023-03-23T10:38:16;100170.88;;;18.93;36.69
77227;BME280;66234;47.642;19.144;2023-03-23T10:41:20;100167.25;;;18.83;37.01
77227;BME280;66234;47.642;19.144;2023-03-23T10:44:24;100164.16;;;18.64;37.43
77227;BME280;66234;47.642;19.144;2023-03-23T10:47:27;100161.16;;;19.02;36.92
77227;BME280;66234;47.642;19.144;2023-03-23T10:50:32;100155.81;;;18.71;37.24
77227;BME280;66234;47.642;19.144;2023-03-23T10:53:50;100163.38;;;19.20;37.06
77227;BME280;66234;47.642;19.144;2023-03-23T10:56:52;100171.97;;;19.07;36.75
77227;BME280;66234;47.642;19.144;2023-03-23T11:00:05;100169.91;;;19.19;36.18
77227;BME280;66234;47.642;19.144;2023-03-23T11:06:27;100161.44;;;19.11;37.07
77227;BME280;66234;47.642;19.144;2023-03-23T11:09:36;100156.06;;;19.21;36.73
77227;BME280;66234;47.642;19.144;2023-03-23T11:12:38;100149.41;;;19.43;36.56
77227;BME280;66234;47.642;19.144;2023-03-23T11:15:41;100150.50;;;19.52;36.62
77227;BME280;66234;47.642;19.144;2023-03-23T11:18:43;100139.88;;;19.36;36.47
77227;BME280;66234;47.642;19.144;2023-03-23T11:21:50;100142.88;;;19.34;36.30
77227;BME280;66234;47.642;19.144;2023-03-23T11:24:55;100143.59;;;19.25;36.15
77227;BME280;66234;47.642;19.144;2023-03-23T11:28:01;100145.88;;;19.48;36.48
77227;BME280;66234;47.642;19.144;2023-03-23T11:31:05;100144.22;;;19.42;36.25
77227;BME280;66234;47.642;19.144;2023-03-23T11:34:24;100146.66;;;19.33;36.29
77227;BME280;66234;47.642;19.144;2023-03-23T11:37:41;100138.63;;;18.92;37.07
77227;BME280;66234;47.642;19.144;2023-03-23T11:40:48;100132.91;;;18.88;37.69
77227;BME280;66234;47.642;19.144;2023-03-23T11:43:52;100131.53;;;18.91;38.49
77227;BME280;66234;47.642;19.144;2023-03-23T11:47:01;100127.34;;;18.63;38.01
77227;BME280;66234;47.642;19.144;2023-03-23T11:50:12;100112.28;;;18.82;37.59
77227;BME280;66234;47.642;19.144;2023-03-23T11:53:32;100115.19;;;19.27;36.77
77227;BME280;66234;47.642;19.144;2023-03-23T11:56:38;100104.38;;;19.52;36.12
77227;BME280;66234;47.642;19.144;2023-03-23T11:59:39;100098.75;;;19.89;35.92
77227;BME280;66234;47.642;19.144;2023-03-23T12:06:39;100094.28;;;20.78;34.12
77227;BME280;66234;47.642;19.144;2023-03-23T12:13:30;100083.75;;;20.52;33.80
77227;BME280;66234;47.642;19.144;2023-03-23T12:30:32;100061.47;;;21.62;31.23
77227;BME280;66234;47.642;19.144;2023-03-23T12:33:59;100063.06;;;21.68;30.92
77227;BME280;66234;47.642;19.144;2023-03-23T12:40:56;100052.03;;;21.88;30.75
77227;BME280;66234;47.642;19.144;2023-03-23T12:44:06;100053.59;;;22.51;30.70
77227;BME280;66234;47.642;19.144;2023-03-23T12:47:24;100045.28;;;22.38;29.55
77227;BME280;66234;47.642;19.144;2023-03-23T12:54:24;100046.69;;;22.59;29.89
77227;BME280;66234;47.642;19.144;2023-03-23T12:57:59;100034.09;;;22.87;29.19
77227;BME280;66234;47.642;19.144;2023-03-23T13:01:24;100035.22;;;23.23;28.53
77227;BME280;66234;47.642;19.144;2023-03-23T13:04:32;100029.09;;;23.12;29.03
77227;BME280;66234;47.642;19.144;2023-03-23T13:11:15;100025.69;;;23.76;27.86
77227;BME280;66234;47.642;19.144;2023-03-23T13:14:37;100039.81;;;23.46;27.82
77227;BME280;66234;47.642;19.144;2023-03-23T13:18:12;100033.13;;;23.70;27.68
77227;BME280;66234;47.642;19.144;2023-03-23T13:21:30;100030.16;;;23.53;28.29
77227;BME280;66234;47.642;19.144;2023-03-23T13:24:36;100023.16;;;23.79;28.14
77227;BME280;66234;47.642;19.144;2023-03-23T13:27:39;100024.19;;;23.51;27.88
77227;BME280;66234;47.642;19.144;2023-03-23T13:30:40;100011.38;;;23.65;27.91
77227;BME280;66234;47.642;19.144;2023-03-23T13:33:57;100007.63;;;23.61;28.63
77227;BME280;66234;47.642;19.144;2023-03-23T13:37:01;100002.16;;;24.25;27.59
77227;BME280;66234;47.642;19.144;2023-03-23T13:43:12;100002.03;;;23.85;27.60
77227;BME280;66234;47.642;19.144;2023-03-23T13:49:21;99993.03;;;24.84;26.47
77227;BME280;66234;47.642;19.144;2023-03-23T13:53:00;99988.41;;;25.07;26.65
77227;BME280;66234;47.642;19.144;2023-03-23T13:56:17;99989.69;;;24.47;26.78
77227;BME280;66234;47.642;19.144;2023-03-23T14:05:43;99977.66;;;24.75;26.47
77227;BME280;66234;47.642;19.144;2023-03-23T14:08:48;99978.56;;;24.70;26.85
77227;BME280;66234;47.642;19.144;2023-03-23T14:11:57;99976.94;;;24.56;26.46
77227;BME280;66234;47.642;19.144;2023-03-23T14:15:01;99976.94;;;24.56;26.43
77227;BME280;66234;47.642;19.144;2023-03-23T14:18:05;99973.97;;;24.52;26.75
77227;BME280;66234;47.642;19.144;2023-03-23T14:21:15;99977.63;;;24.88;26.25
77227;BME280;66234;47.642;19.144;2023-03-23T14:27:22;99962.97;;;25.42;26.47
77227;BME280;66234;47.642;19.144;2023-03-23T14:30:26;99960.84;;;24.81;26.38
77227;BME280;66234;47.642;19.144;2023-03-23T14:33:28;99963.00;;;24.93;26.46
77227;BME280;66234;47.642;19.144;2023-03-23T14:36:31;99961.16;;;25.37;25.11
77227;BME280;66234;47.642;19.144;2023-03-23T14:39:33;99968.13;;;25.08;25.57
77227;BME280;66234;47.642;19.144;2023-03-23T14:42:36;99971.16;;;25.20;25.56
77227;BME280;66234;47.642;19.144;2023-03-23T14:45:38;99969.50;;;24.83;26.22
77227;BME280;66234;47.642;19.144;2023-03-23T14:48:40;99955.66;;;24.12;27.52
77227;BME280;66234;47.642;19.144;2023-03-23T14:51:50;99960.75;;;23.41;28.21
77227;BME280;66234;47.642;19.144;2023-03-23T14:54:53;99966.81;;;23.01;28.82
77227;BME280;66234;47.642;19.144;2023-03-23T14:57:54;99970.28;;;22.88;29.18
77227;BME280;66234;47.642;19.144;2023-03-23T15:01:08;99966.66;;;22.73;29.46
77227;BME280;66234;47.642;19.144;2023-03-23T15:07:15;99969.97;;;22.23;30.24
77227;BME280;66234;47.642;19.144;2023-03-23T15:10:20;99967.16;;;22.33;30.25
77227;BME280;66234;47.642;19.144;2023-03-23T15:13:22;99972.84;;;22.13;30.77
77227;BME280;66234;47.642;19.144;2023-03-23T15:16:28;99969.53;;;21.59;31.38
77227;BME280;66234;47.642;19.144;2023-03-23T15:19:40;99962.09;;;21.36;31.96
77227;BME280;66234;47.642;19.144;2023-03-23T15:22:46;99968.63;;;21.35;31.84
77227;BME280;66234;47.642;19.144;2023-03-23T15:25:51;99970.03;;;21.61;31.52
77227;BME280;66234;47.642;19.144;2023-03-23T15:29:20;99978.09;;;22.28;30.53
77227;BME280;66234;47.642;19.144;2023-03-23T15:32:38;99965.78;;;22.97;29.38
77227;BME280;66234;47.642;19.144;2023-03-23T15:35:45;99965.19;;;23.00;29.54
77227;BME280;66234;47.642;19.144;2023-03-23T15:38:47;99962.00;;;22.93;29.49
77227;BME280;66234;47.642;19.144;2023-03-23T15:41:51;99960.38;;;22.73;29.76
77227;BME280;66234;47.642;19.144;2023-03-23T15:48:11;99955.19;;;21.82;31.45
77227;BME280;66234;47.642;19.144;2023-03-23T15:51:13;99951.00;;;21.61;31.73
77227;BME280;66234;47.642;19.144;2023-03-23T15:54:15;99954.59;;;21.23;32.35
77227;BME280;66234;47.642;19.144;2023-03-23T15:57:17;99952.25;;;21.11;32.88
77227;BME280;66234;47.642;19.144;2023-03-23T16:00:20;99962.16;;;20.82;33.52
77227;BME280;66234;47.642;19.144;2023-03-23T16:03:25;99961.97;;;20.69;34.11
77227;BME280;66234;47.642;19.144;2023-03-23T16:06:31;99969.66;;;20.52;34.31
77227;BME280;66234;47.642;19.144;2023-03-23T16:09:34;99970.03;;;20.25;34.86
77227;BME280;66234;47.642;19.144;2023-03-23T16:12:37;99971.16;;;20.09;34.93
77227;BME280;66234;47.642;19.144;2023-03-23T16:15:40;99974.72;;;19.95;35.44
77227;BME280;66234;47.642;19.144;2023-03-23T16:18:44;99980.72;;;19.82;35.83
77227;BME280;66234;47.642;19.144;2023-03-23T16:21:46;99986.16;;;19.77;36.03
77227;BME280;66234;47.642;19.144;2023-03-23T16:24:49;99993.72;;;19.70;35.94
77227;BME280;66234;47.642;19.144;2023-03-23T16:27:51;99991.03;;;19.65;36.13
77227;BME280;66234;47.642;19.144;2023-03-23T16:30:55;99988.84;;;19.46;36.29
77227;BME280;66234;47.642;19.144;2023-03-23T16:33:58;99985.56;;;19.24;36.85
77227;BME280;66234;47.642;19.144;2023-03-23T16:37:01;99988.22;;;19.04;37.25
77227;BME280;66234;47.642;19.144;2023-03-23T16:40:05;99997.72;;;18.92;37.60
77227;BME280;66234;47.642;19.144;2023-03-23T16:43:09;99987.63;;;18.72;38.04
77227;BME280;66234;47.642;19.144;2023-03-23T16:46:12;99985.94;;;18.51;38.63
77227;BME280;66234;47.642;19.144;2023-03-23T16:49:15;99990.41;;;18.31;39.12
77227;BME280;66234;47.642;19.144;2023-03-23T16:52:18;99992.78;;;18.17;39.58
77227;BME280;66234;47.642;19.144;2023-03-23T16:55:21;100001.88;;;18.01;39.65
77227;BME280;66234;47.642;19.144;2023-03-23T16:58:23;99999.91;;;17.91;39.84
77227;BME280;66234;47.642;19.144;2023-03-23T17:01:26;100001.16;;;17.79;40.49
77227;BME280;66234;47.642;19.144;2023-03-23T17:04:30;99988.38;;;17.64;40.60
77227;BME280;66234;47.642;19.144;2023-03-23T17:07:32;99996.19;;;17.61;40.66
77227;BME280;66234;47.642;19.144;2023-03-23T17:10:37;99990.97;;;17.49;40.99
77227;BME280;66234;47.642;19.144;2023-03-23T17:13:41;99994.31;;;17.35;41.28
77227;BME280;66234;47.642;19.144;2023-03-23T17:16:43;100002.81;;;17.22;41.65
77227;BME280;66234;47.642;19.144;2023-03-23T17:19:46;99992.25;;;17.15;41.63
77227;BME280;66234;47.642;19.144;2023-03-23T17:22:49;99999.41;;;17.05;42.12
77227;BME280;66234;47.642;19.144;2023-03-23T17:25:53;100007.38;;;16.90;42.53
77227;BME280;66234;47.642;19.144;2023-03-23T17:28:56;100003.13;;;16.72;42.90
77227;BME280;66234;47.642;19.144;2023-03-23T17:31:58;100019.09;;;16.52;43.49
77227;BME280;66234;47.642;19.144;2023-03-23T17:35:02;100023.75;;;16.40;43.95
77227;BME280;66234;47.642;19.144;2023-03-23T17:38:06;100023.78;;;16.23;44.75